GAF1501 EDDB-EDDM
Flight info
| Callsign | GAF1501 |
|---|---|
| Flight time | 0h 48m |
| Altitude | 31000 |
| Route | LUROS4B/06L LUROS Y211 BEBKU Z36 MAREM DCT VESUB T106 TUSTO T108 LANDU LANDU2B |
| Aircraft | A319/M-SDE3FGHIRWY/LB1 |
Departure
| Time | 2026-05-06 16:29 |
|---|---|
| Airport | Berlin Brandenburg Airport (EDDB) |
Arrival
| Time | 2026-05-06 17:18 |
|---|---|
| Airport | Munich Airport (EDDM) |
| Time | Latitude | Longitude | Altitude | Speed | Heading |
|---|---|---|---|---|---|
| 2026-05-06 16:18 | 52.38077 | 13.50871 | 155 ft | 0 kts | 57° |
| 2026-05-06 16:24 | 52.38080 | 13.50879 | 155 ft | 2 kts | 57° |
| 2026-05-06 16:24 | 52.38098 | 13.50925 | 155 ft | 7 kts | 57° |
| 2026-05-06 16:25 | 52.38103 | 13.51020 | 155 ft | 11 kts | 110° |
| 2026-05-06 16:25 | 52.38056 | 13.51133 | 155 ft | 12 kts | 143° |
| 2026-05-06 16:25 | 52.37987 | 13.51091 | 155 ft | 14 kts | 238° |
| 2026-05-06 16:25 | 52.37932 | 13.50947 | 155 ft | 16 kts | 237° |
| 2026-05-06 16:26 | 52.37864 | 13.50774 | 155 ft | 20 kts | 237° |
| 2026-05-06 16:26 | 52.37813 | 13.50643 | 155 ft | 21 kts | 237° |
| 2026-05-06 16:26 | 52.37728 | 13.50427 | 155 ft | 24 kts | 237° |
| 2026-05-06 16:26 | 52.37633 | 13.50185 | 155 ft | 23 kts | 238° |
| 2026-05-06 16:27 | 52.37507 | 13.49864 | 155 ft | 27 kts | 237° |
| 2026-05-06 16:27 | 52.37402 | 13.49594 | 155 ft | 29 kts | 237° |
| 2026-05-06 16:27 | 52.37292 | 13.49309 | 155 ft | 31 kts | 237° |
| 2026-05-06 16:27 | 52.37178 | 13.49017 | 155 ft | 27 kts | 238° |
| 2026-05-06 16:28 | 52.37110 | 13.48839 | 155 ft | 26 kts | 236° |
| 2026-05-06 16:28 | 52.36992 | 13.48612 | 155 ft | 27 kts | 195° |
| 2026-05-06 16:28 | 52.36848 | 13.48543 | 155 ft | 18 kts | 178° |
| 2026-05-06 16:28 | 52.36820 | 13.48721 | 155 ft | 22 kts | 68° |
| 2026-05-06 16:29 | 52.37034 | 13.49615 | 155 ft | 109 kts | 69° |
| 2026-05-06 16:29 | 52.37378 | 13.51056 | 353 ft | 149 kts | 68° |
| 2026-05-06 16:29 | 52.37613 | 13.52137 | 893 ft | 150 kts | 68° |
| 2026-05-06 16:29 | 52.38128 | 13.54372 | 1806 ft | 173 kts | 66° |
| 2026-05-06 16:30 | 52.38437 | 13.55640 | 2199 ft | 189 kts | 67° |
| 2026-05-06 16:30 | 52.38777 | 13.57049 | 2596 ft | 205 kts | 66° |
| 2026-05-06 16:30 | 52.39520 | 13.60149 | 3542 ft | 238 kts | 67° |
| 2026-05-06 16:30 | 52.40153 | 13.62806 | 4381 ft | 262 kts | 68° |
| 2026-05-06 16:31 | 52.40829 | 13.65672 | 5441 ft | 276 kts | 68° |
| 2026-05-06 16:31 | 52.41534 | 13.68669 | 6509 ft | 288 kts | 68° |
| 2026-05-06 16:31 | 52.42222 | 13.71801 | 7602 ft | 296 kts | 76° |
| 2026-05-06 16:31 | 52.42329 | 13.75184 | 8687 ft | 302 kts | 101° |
| 2026-05-06 16:32 | 52.41590 | 13.78379 | 9814 ft | 301 kts | 127° |
| 2026-05-06 16:32 | 52.40157 | 13.80811 | 10643 ft | 309 kts | 150° |
| 2026-05-06 16:32 | 52.38192 | 13.82404 | 11279 ft | 322 kts | 161° |
| 2026-05-06 16:32 | 52.36118 | 13.83880 | 12208 ft | 328 kts | 161° |
| 2026-05-06 16:33 | 52.34011 | 13.85384 | 13225 ft | 332 kts | 160° |
| 2026-05-06 16:33 | 52.31883 | 13.86920 | 14162 ft | 336 kts | 160° |
| 2026-05-06 16:33 | 52.29735 | 13.88483 | 15036 ft | 340 kts | 160° |
| 2026-05-06 16:34 | 52.25361 | 13.91691 | 16782 ft | 349 kts | 160° |
| 2026-05-06 16:34 | 52.23136 | 13.93325 | 17648 ft | 353 kts | 160° |
| 2026-05-06 16:34 | 52.20883 | 13.94974 | 18446 ft | 357 kts | 160° |
| 2026-05-06 16:34 | 52.18633 | 13.96616 | 19179 ft | 361 kts | 160° |
| 2026-05-06 16:35 | 52.16327 | 13.98295 | 19970 ft | 364 kts | 160° |
| 2026-05-06 16:35 | 52.14008 | 13.99982 | 20757 ft | 367 kts | 160° |
| 2026-05-06 16:35 | 52.10866 | 14.02264 | 21727 ft | 373 kts | 160° |
| 2026-05-06 16:35 | 52.09288 | 14.03406 | 22198 ft | 376 kts | 160° |
| 2026-05-06 16:36 | 52.06885 | 14.05146 | 22909 ft | 380 kts | 160° |
| 2026-05-06 16:36 | 52.04453 | 14.06909 | 23580 ft | 385 kts | 160° |
| 2026-05-06 16:36 | 52.01997 | 14.08690 | 24202 ft | 388 kts | 160° |
| 2026-05-06 16:36 | 51.99557 | 14.10452 | 24829 ft | 390 kts | 161° |
| 2026-05-06 16:37 | 51.97073 | 14.12244 | 25478 ft | 392 kts | 161° |
| 2026-05-06 16:37 | 51.94564 | 14.14000 | 26113 ft | 392 kts | 165° |
| 2026-05-06 16:37 | 51.91948 | 14.15122 | 26736 ft | 388 kts | 175° |
| 2026-05-06 16:37 | 51.89271 | 14.15383 | 27353 ft | 384 kts | 186° |
| 2026-05-06 16:38 | 51.86630 | 14.14804 | 27976 ft | 383 kts | 196° |
| 2026-05-06 16:38 | 51.84108 | 14.13451 | 28589 ft | 383 kts | 205° |
| 2026-05-06 16:38 | 51.81657 | 14.11738 | 29190 ft | 385 kts | 205° |
| 2026-05-06 16:38 | 51.79220 | 14.10044 | 29789 ft | 388 kts | 205° |
| 2026-05-06 16:39 | 51.76734 | 14.08323 | 30282 ft | 390 kts | 205° |
| 2026-05-06 16:39 | 51.74229 | 14.06597 | 30683 ft | 393 kts | 205° |
| 2026-05-06 16:39 | 51.71716 | 14.04873 | 30783 ft | 389 kts | 205° |
| 2026-05-06 16:39 | 51.69276 | 14.03208 | 30801 ft | 373 kts | 205° |
| 2026-05-06 16:40 | 51.66935 | 14.01610 | 30793 ft | 360 kts | 205° |
| 2026-05-06 16:40 | 51.62385 | 13.98483 | 30796 ft | 353 kts | 205° |
| 2026-05-06 16:41 | 51.57904 | 13.95400 | 30797 ft | 353 kts | 205° |
| 2026-05-06 16:41 | 51.53385 | 13.92298 | 30791 ft | 352 kts | 205° |
| 2026-05-06 16:42 | 51.48871 | 13.89224 | 30794 ft | 352 kts | 205° |
| 2026-05-06 16:42 | 51.44247 | 13.86616 | 30772 ft | 356 kts | 194° |
| 2026-05-06 16:43 | 51.39409 | 13.85232 | 30776 ft | 356 kts | 193° |
| 2026-05-06 16:43 | 51.34494 | 13.83807 | 30785 ft | 369 kts | 193° |
| 2026-05-06 16:43 | 51.31917 | 13.83056 | 30765 ft | 384 kts | 193° |
| 2026-05-06 16:44 | 51.29239 | 13.82282 | 30763 ft | 399 kts | 193° |
| 2026-05-06 16:44 | 51.26461 | 13.81487 | 30760 ft | 412 kts | 193° |
| 2026-05-06 16:44 | 51.23603 | 13.80669 | 30757 ft | 423 kts | 193° |
| 2026-05-06 16:45 | 51.17743 | 13.78994 | 30755 ft | 431 kts | 193° |
| 2026-05-06 16:45 | 51.11878 | 13.77331 | 30755 ft | 432 kts | 193° |
| 2026-05-06 16:46 | 51.05965 | 13.75647 | 30755 ft | 432 kts | 193° |
| 2026-05-06 16:46 | 51.00094 | 13.73976 | 30759 ft | 427 kts | 193° |
| 2026-05-06 16:47 | 50.94289 | 13.72329 | 30745 ft | 427 kts | 193° |
| 2026-05-06 16:47 | 50.88457 | 13.70535 | 30746 ft | 425 kts | 198° |
| 2026-05-06 16:48 | 50.82770 | 13.67936 | 30752 ft | 426 kts | 198° |
| 2026-05-06 16:48 | 50.77079 | 13.65365 | 30749 ft | 426 kts | 198° |
| 2026-05-06 16:49 | 50.71391 | 13.62821 | 30770 ft | 424 kts | 199° |
| 2026-05-06 16:49 | 50.65797 | 13.60129 | 30777 ft | 422 kts | 200° |
| 2026-05-06 16:50 | 50.60219 | 13.57274 | 30771 ft | 421 kts | 200° |
| 2026-05-06 16:50 | 50.54646 | 13.54436 | 30765 ft | 421 kts | 200° |
| 2026-05-06 16:51 | 50.49073 | 13.51657 | 30765 ft | 420 kts | 200° |
| 2026-05-06 16:51 | 50.43509 | 13.48918 | 30765 ft | 419 kts | 200° |
| 2026-05-06 16:52 | 50.37988 | 13.46195 | 30763 ft | 418 kts | 200° |
| 2026-05-06 16:52 | 50.32437 | 13.43459 | 30756 ft | 418 kts | 200° |
| 2026-05-06 16:53 | 50.26886 | 13.40727 | 30753 ft | 418 kts | 200° |
| 2026-05-06 16:53 | 50.21340 | 13.38005 | 30751 ft | 418 kts | 200° |
| 2026-05-06 16:54 | 50.15793 | 13.35285 | 30746 ft | 418 kts | 200° |
| 2026-05-06 16:54 | 50.10246 | 13.32576 | 30735 ft | 418 kts | 200° |
| 2026-05-06 16:55 | 50.04694 | 13.29875 | 30742 ft | 418 kts | 200° |
| 2026-05-06 16:55 | 49.99186 | 13.27201 | 30740 ft | 418 kts | 200° |
| 2026-05-06 16:56 | 49.93641 | 13.24500 | 30742 ft | 418 kts | 200° |
| 2026-05-06 16:56 | 49.88094 | 13.21823 | 30723 ft | 418 kts | 200° |
| 2026-05-06 16:56 | 49.85316 | 13.20487 | 30569 ft | 418 kts | 200° |
| 2026-05-06 16:57 | 49.82530 | 13.19146 | 30321 ft | 419 kts | 200° |
| 2026-05-06 16:57 | 49.79744 | 13.17805 | 30083 ft | 420 kts | 200° |
| 2026-05-06 16:57 | 49.76947 | 13.16458 | 29831 ft | 421 kts | 200° |
| 2026-05-06 16:57 | 49.74151 | 13.15111 | 29551 ft | 422 kts | 200° |
| 2026-05-06 16:58 | 49.71346 | 13.13762 | 29265 ft | 423 kts | 200° |
| 2026-05-06 16:58 | 49.68531 | 13.12413 | 28912 ft | 424 kts | 200° |
| 2026-05-06 16:58 | 49.65749 | 13.11085 | 28463 ft | 425 kts | 200° |
| 2026-05-06 16:58 | 49.62923 | 13.09738 | 28027 ft | 426 kts | 200° |
| 2026-05-06 16:59 | 49.60084 | 13.08385 | 27595 ft | 427 kts | 200° |
| 2026-05-06 16:59 | 49.57242 | 13.07029 | 27165 ft | 428 kts | 199° |
| 2026-05-06 16:59 | 49.54392 | 13.05671 | 26749 ft | 430 kts | 199° |
| 2026-05-06 16:59 | 49.51532 | 13.04309 | 26335 ft | 431 kts | 199° |
| 2026-05-06 17:00 | 49.48664 | 13.02940 | 25925 ft | 432 kts | 199° |
| 2026-05-06 17:00 | 49.45793 | 13.01568 | 25516 ft | 433 kts | 199° |
| 2026-05-06 17:00 | 49.42908 | 13.00194 | 25121 ft | 434 kts | 199° |
| 2026-05-06 17:00 | 49.40125 | 12.98418 | 24795 ft | 434 kts | 207° |
| 2026-05-06 17:01 | 49.37434 | 12.96447 | 24715 ft | 435 kts | 206° |
| 2026-05-06 17:01 | 49.34698 | 12.94455 | 24632 ft | 436 kts | 206° |
| 2026-05-06 17:01 | 49.31956 | 12.92466 | 24268 ft | 436 kts | 206° |
| 2026-05-06 17:01 | 49.29212 | 12.90475 | 23913 ft | 437 kts | 206° |
| 2026-05-06 17:02 | 49.26460 | 12.88478 | 23563 ft | 438 kts | 206° |
| 2026-05-06 17:02 | 49.23699 | 12.86476 | 23208 ft | 439 kts | 206° |
| 2026-05-06 17:02 | 49.20967 | 12.84495 | 22786 ft | 429 kts | 206° |
| 2026-05-06 17:02 | 49.18290 | 12.82552 | 22377 ft | 424 kts | 206° |
| 2026-05-06 17:03 | 49.15658 | 12.80641 | 21976 ft | 424 kts | 206° |
| 2026-05-06 17:03 | 49.12989 | 12.78708 | 21578 ft | 425 kts | 206° |
| 2026-05-06 17:03 | 49.10309 | 12.76770 | 21185 ft | 427 kts | 206° |
| 2026-05-06 17:03 | 49.07617 | 12.74828 | 20801 ft | 429 kts | 206° |
| 2026-05-06 17:04 | 49.04928 | 12.72889 | 20417 ft | 427 kts | 206° |
| 2026-05-06 17:04 | 49.02244 | 12.70957 | 20035 ft | 427 kts | 206° |
| 2026-05-06 17:04 | 48.99562 | 12.69034 | 19666 ft | 425 kts | 206° |
| 2026-05-06 17:04 | 48.96888 | 12.67121 | 19300 ft | 424 kts | 206° |
| 2026-05-06 17:05 | 48.94225 | 12.65217 | 18939 ft | 418 kts | 206° |
| 2026-05-06 17:05 | 48.91666 | 12.63388 | 18580 ft | 395 kts | 206° |
| 2026-05-06 17:05 | 48.89268 | 12.61677 | 18234 ft | 377 kts | 206° |
| 2026-05-06 17:05 | 48.86943 | 12.60021 | 17873 ft | 362 kts | 206° |
| 2026-05-06 17:06 | 48.84705 | 12.58429 | 17469 ft | 348 kts | 206° |
| 2026-05-06 17:06 | 48.82555 | 12.56902 | 17062 ft | 335 kts | 206° |
| 2026-05-06 17:06 | 48.80483 | 12.55431 | 16668 ft | 323 kts | 206° |
| 2026-05-06 17:06 | 48.78475 | 12.54005 | 16277 ft | 316 kts | 206° |
| 2026-05-06 17:07 | 48.76481 | 12.52649 | 15890 ft | 311 kts | 205° |
| 2026-05-06 17:07 | 48.74520 | 12.51365 | 15509 ft | 304 kts | 205° |
| 2026-05-06 17:07 | 48.72626 | 12.50130 | 15140 ft | 297 kts | 205° |
| 2026-05-06 17:07 | 48.70745 | 12.48907 | 14772 ft | 292 kts | 205° |
| 2026-05-06 17:08 | 48.68892 | 12.47702 | 14407 ft | 288 kts | 205° |
| 2026-05-06 17:08 | 48.67063 | 12.46513 | 14045 ft | 285 kts | 205° |
| 2026-05-06 17:08 | 48.65243 | 12.45332 | 13686 ft | 284 kts | 205° |
| 2026-05-06 17:08 | 48.63430 | 12.44153 | 13304 ft | 283 kts | 205° |
| 2026-05-06 17:09 | 48.61629 | 12.42976 | 12903 ft | 281 kts | 205° |
| 2026-05-06 17:09 | 48.59845 | 12.41796 | 12516 ft | 279 kts | 205° |
| 2026-05-06 17:09 | 48.58076 | 12.40626 | 12125 ft | 277 kts | 205° |
| 2026-05-06 17:09 | 48.56340 | 12.39478 | 11746 ft | 275 kts | 205° |
| 2026-05-06 17:10 | 48.54596 | 12.38324 | 11344 ft | 273 kts | 205° |
| 2026-05-06 17:10 | 48.52853 | 12.37166 | 10842 ft | 275 kts | 205° |
| 2026-05-06 17:10 | 48.51099 | 12.36001 | 10316 ft | 275 kts | 205° |
| 2026-05-06 17:10 | 48.49361 | 12.34846 | 9798 ft | 272 kts | 205° |
| 2026-05-06 17:11 | 48.47638 | 12.33697 | 9237 ft | 269 kts | 204° |
| 2026-05-06 17:11 | 48.45948 | 12.32555 | 8662 ft | 264 kts | 204° |
| 2026-05-06 17:11 | 48.44381 | 12.31170 | 8094 ft | 262 kts | 222° |
| 2026-05-06 17:11 | 48.43259 | 12.29032 | 7627 ft | 266 kts | 234° |
| 2026-05-06 17:12 | 48.42225 | 12.26719 | 7095 ft | 268 kts | 234° |
| 2026-05-06 17:12 | 48.41189 | 12.24384 | 6646 ft | 269 kts | 234° |
| 2026-05-06 17:12 | 48.40153 | 12.22039 | 6219 ft | 269 kts | 236° |
| 2026-05-06 17:12 | 48.39465 | 12.19422 | 5765 ft | 273 kts | 258° |
| 2026-05-06 17:13 | 48.39244 | 12.16599 | 5390 ft | 270 kts | 263° |
| 2026-05-06 17:13 | 48.39055 | 12.13826 | 5035 ft | 262 kts | 262° |
| 2026-05-06 17:13 | 48.38864 | 12.11189 | 4990 ft | 244 kts | 263° |
| 2026-05-06 17:13 | 48.38682 | 12.08732 | 4836 ft | 230 kts | 263° |
| 2026-05-06 17:14 | 48.38509 | 12.06398 | 4573 ft | 220 kts | 263° |
| 2026-05-06 17:14 | 48.38344 | 12.04163 | 4292 ft | 211 kts | 263° |
| 2026-05-06 17:14 | 48.38183 | 12.02006 | 4008 ft | 203 kts | 263° |
| 2026-05-06 17:14 | 48.38031 | 11.99964 | 3771 ft | 194 kts | 263° |
| 2026-05-06 17:15 | 48.37886 | 11.98017 | 3502 ft | 178 kts | 263° |
| 2026-05-06 17:15 | 48.37754 | 11.96257 | 3276 ft | 163 kts | 263° |
| 2026-05-06 17:15 | 48.37629 | 11.94592 | 3069 ft | 158 kts | 263° |
| 2026-05-06 17:15 | 48.37508 | 11.92978 | 2877 ft | 153 kts | 263° |
| 2026-05-06 17:16 | 48.37388 | 11.91377 | 2663 ft | 154 kts | 263° |
| 2026-05-06 17:16 | 48.37266 | 11.89770 | 2453 ft | 155 kts | 264° |
| 2026-05-06 17:16 | 48.37146 | 11.88170 | 2258 ft | 153 kts | 263° |
| 2026-05-06 17:16 | 48.37031 | 11.86606 | 2078 ft | 148 kts | 263° |
| 2026-05-06 17:17 | 48.36924 | 11.85172 | 1960 ft | 130 kts | 263° |
| 2026-05-06 17:17 | 48.36829 | 11.83891 | 1813 ft | 121 kts | 263° |
| 2026-05-06 17:17 | 48.36727 | 11.82658 | 1621 ft | 117 kts | 263° |
| 2026-05-06 17:17 | 48.36638 | 11.81455 | 1483 ft | 111 kts | 263° |
| 2026-05-06 17:18 | 48.36565 | 11.80504 | 1476 ft | 62 kts | 263° |
| 2026-05-06 17:18 | 48.36538 | 11.80159 | 1471 ft | 28 kts | 263° |
| 2026-05-06 17:18 | 48.36504 | 11.79859 | 1478 ft | 22 kts | 245° |
| 2026-05-06 17:18 | 48.36437 | 11.79674 | 1483 ft | 18 kts | 231° |
| 2026-05-06 17:19 | 48.36381 | 11.79560 | 1486 ft | 12 kts | 232° |
| 2026-05-06 17:19 | 48.36323 | 11.79445 | 1481 ft | 14 kts | 234° |
| 2026-05-06 17:19 | 48.36273 | 11.79339 | 1481 ft | 11 kts | 234° |